Time;durP1;ratioP1;P1;durP2;ratioP2;P2;SDS_P1;SDS_P2;PMS_P1;PMS_P2;Temp;Humidity;BMP_temperature;BMP_pressure;BME280_temperature;BME280_humidity;BME280_pressure;Samples;Min_cycle;Max_cycle;Signal;HPM_P1;HPM_P2
2022/08/21 00:00:56;;;;;;;11.20;3.78;;;;;;;16.36;100.00;98812.50;5070064;28;20065;-85
2022/08/21 00:03:22;;;;;;;16.08;5.10;;;;;;;16.42;100.00;98824.81;5079748;28;20060;-86
2022/08/21 00:05:50;;;;;;;15.40;4.15;;;;;;;16.26;100.00;98819.25;5082546;28;20389;-83
2022/08/21 00:08:19;;;;;;;17.63;5.18;;;;;;;16.31;100.00;98821.19;5080781;28;20382;-86
2022/08/21 00:10:46;;;;;;;15.70;4.40;;;;;;;16.31;100.00;98823.03;5079857;28;20051;-85
2022/08/21 00:13:12;;;;;;;8.80;4.00;;;;;;;16.34;100.00;98825.19;5081043;28;20028;-86
2022/08/21 00:15:39;;;;;;;14.73;3.83;;;;;;;16.31;100.00;98830.97;5067518;28;20486;-86
2022/08/21 00:18:07;;;;;;;13.90;4.55;;;;;;;16.18;100.00;98824.91;5080517;28;20032;-86
2022/08/21 00:20:34;;;;;;;10.18;3.90;;;;;;;16.29;100.00;98836.50;5082455;28;20027;-85
2022/08/21 00:23:00;;;;;;;12.93;3.83;;;;;;;16.24;100.00;98836.41;5086329;28;20118;-86
2022/08/21 00:25:26;;;;;;;13.13;4.25;;;;;;;16.25;100.00;98836.19;5081188;28;20032;-86
2022/08/21 00:27:53;;;;;;;12.20;4.45;;;;;;;16.16;100.00;98828.84;5076450;28;20032;-86
2022/08/21 00:30:20;;;;;;;12.95;4.40;;;;;;;16.17;100.00;98838.41;5057676;28;20035;-86
2022/08/21 00:32:46;;;;;;;14.90;4.10;;;;;;;16.11;100.00;98833.03;5081418;28;20035;-85
2022/08/21 00:35:17;;;;;;;16.13;4.10;;;;;;;16.10;100.00;98826.09;5077803;28;20385;-85
2022/08/21 00:37:43;;;;;;;8.75;3.97;;;;;;;16.22;100.00;98834.00;5078578;28;20052;-85
2022/08/21 00:40:13;;;;;;;13.93;4.07;;;;;;;16.19;100.00;98807.19;5067292;28;20799;-85
2022/08/21 00:42:39;;;;;;;14.52;4.45;;;;;;;16.13;100.00;98809.75;5083415;28;20024;-86
2022/08/21 00:45:06;;;;;;;13.48;4.40;;;;;;;16.20;100.00;98828.13;5079912;28;20489;-85
2022/08/21 00:47:32;;;;;;;9.43;4.13;;;;;;;16.12;100.00;98802.03;5081938;28;20466;-85
2022/08/21 00:49:58;;;;;;;10.95;4.40;;;;;;;16.29;100.00;98825.91;5065276;28;20464;-85
2022/08/21 00:52:28;;;;;;;11.88;4.45;;;;;;;16.31;100.00;98818.53;5077352;28;20029;-85
2022/08/21 00:54:55;;;;;;;14.82;4.10;;;;;;;16.38;100.00;98827.13;5075715;28;20028;-85
2022/08/21 00:57:29;;;;;;;15.70;4.85;;;;;;;16.31;100.00;98826.50;5061632;28;20012;-86
2022/08/21 00:59:58;;;;;;;17.10;4.38;;;;;;;16.26;100.00;98824.53;5081160;28;20115;-85
2022/08/21 01:02:24;;;;;;;16.60;4.45;;;;;;;16.26;100.00;98832.50;5067036;28;20038;-85
2022/08/21 01:04:50;;;;;;;12.60;4.25;;;;;;;16.32;100.00;98827.28;5079875;28;20399;-85
2022/08/21 01:07:17;;;;;;;16.98;4.85;;;;;;;16.22;100.00;98822.59;5063271;28;20043;-84
2022/08/21 01:09:45;;;;;;;10.63;4.22;;;;;;;16.17;100.00;98803.97;5084007;28;20376;-83
2022/08/21 01:12:12;;;;;;;10.43;3.97;;;;;;;16.12;100.00;98808.16;5063994;28;20474;-83
2022/08/21 01:14:42;;;;;;;11.77;4.30;;;;;;;16.06;100.00;98814.38;5081625;28;20112;-83
2022/08/21 01:17:09;;;;;;;12.00;4.30;;;;;;;16.00;100.00;98812.66;5079439;28;20471;-83
2022/08/21 01:19:35;;;;;;;11.93;3.90;;;;;;;16.10;100.00;98815.50;5082749;28;20031;-83
2022/08/21 01:22:01;;;;;;;16.23;5.05;;;;;;;16.16;100.00;98823.56;5082938;28;20028;-84
2022/08/21 01:24:27;;;;;;;14.10;4.68;;;;;;;16.16;100.00;98821.69;5080796;28;20059;-85
2022/08/21 01:26:53;;;;;;;12.55;4.30;;;;;;;16.12;100.00;98804.69;5079752;28;20036;-86
2022/08/21 01:29:39;;;;;;;13.30;4.82;;;;;;;16.20;100.00;98820.19;5057485;28;20040;-86
2022/08/21 01:32:11;;;;;;;18.27;4.95;;;;;;;16.02;100.00;98815.88;5084792;28;20040;-85
2022/08/21 01:34:40;;;;;;;13.32;3.90;;;;;;;16.08;100.00;98811.50;5063135;28;20035;-86
2022/08/21 01:37:06;;;;;;;14.20;4.78;;;;;;;16.01;100.00;98805.53;5075636;28;20556;-86
2022/08/21 01:39:33;;;;;;;15.35;5.32;;;;;;;15.94;100.00;98805.69;5080479;28;20138;-85
2022/08/21 01:41:59;;;;;;;15.15;4.47;;;;;;;16.02;100.00;98817.75;5081154;28;20043;-85
2022/08/21 01:44:25;;;;;;;18.13;4.75;;;;;;;16.07;100.00;98820.47;5076855;28;20040;-86
2022/08/21 01:46:51;;;;;;;15.40;4.43;;;;;;;16.02;100.00;98809.81;5076602;28;20478;-85
2022/08/21 01:49:17;;;;;;;11.93;4.18;;;;;;;15.96;100.00;98822.91;5080279;28;20429;-83
2022/08/21 01:51:45;;;;;;;15.18;4.88;;;;;;;15.84;100.00;98817.63;5073701;28;20044;-84
2022/08/21 01:54:11;;;;;;;15.38;4.80;;;;;;;15.85;100.00;98829.03;5061930;28;20394;-84
2022/08/21 01:56:46;;;;;;;9.48;4.65;;;;;;;15.82;100.00;98830.31;5084095;28;20384;-83
2022/08/21 01:59:13;;;;;;;18.10;5.80;;;;;;;15.71;100.00;98831.13;5063658;28;20036;-84
2022/08/21 02:01:41;;;;;;;11.50;4.78;;;;;;;15.62;100.00;98824.59;5080805;28;20054;-85
2022/08/21 02:04:09;;;;;;;15.23;5.20;;;;;;;15.54;100.00;98813.34;5080767;28;20033;-85
2022/08/21 02:06:35;;;;;;;12.85;5.43;;;;;;;15.53;100.00;98822.31;5079662;28;20570;-85
2022/08/21 02:09:05;;;;;;;16.20;4.72;;;;;;;15.57;100.00;98822.63;5080464;28;20060;-85
2022/08/21 02:11:32;;;;;;;12.00;5.35;;;;;;;15.57;100.00;98826.09;5082553;28;20470;-85
2022/08/21 02:13:57;;;;;;;16.65;5.53;;;;;;;15.42;100.00;98809.91;5080003;28;20037;-84
2022/08/21 02:16:24;;;;;;;14.38;5.03;;;;;;;15.46;100.00;98824.25;5081686;28;20387;-85
2022/08/21 02:18:49;;;;;;;16.42;4.95;;;;;;;15.39;100.00;98818.31;5072708;28;20032;-84
2022/08/21 02:21:15;;;;;;;13.18;4.97;;;;;;;15.24;100.00;98808.19;5081692;28;20048;-85
2022/08/21 02:23:41;;;;;;;15.55;5.22;;;;;;;15.23;100.00;98825.06;5080806;28;20031;-84
2022/08/21 02:26:09;;;;;;;12.20;4.95;;;;;;;15.43;100.00;98822.09;5079020;28;20036;-84
2022/08/21 02:28:36;;;;;;;15.82;4.75;;;;;;;15.51;100.00;98827.00;5076872;28;20487;-84
2022/08/21 02:31:03;;;;;;;17.15;5.57;;;;;;;15.38;100.00;98824.63;5079888;28;20024;-85
2022/08/21 02:33:28;;;;;;;17.95;5.25;;;;;;;15.56;100.00;98811.25;5078787;28;20119;-86
2022/08/21 02:35:56;;;;;;;13.57;5.68;;;;;;;15.42;100.00;98802.75;5063789;28;20072;-84
2022/08/21 02:38:25;;;;;;;11.50;5.35;;;;;;;15.37;100.00;98810.59;5079774;28;20034;-85
2022/08/21 02:40:52;;;;;;;22.92;6.47;;;;;;;15.46;100.00;98804.97;5078196;28;20027;-85
2022/08/21 02:43:20;;;;;;;14.93;4.35;;;;;;;15.51;100.00;98797.13;5083499;28;20032;-85
2022/08/21 02:45:47;;;;;;;13.10;5.32;;;;;;;15.51;100.00;98799.78;5078980;28;20020;-85
2022/08/21 02:48:16;;;;;;;15.30;5.10;;;;;;;15.38;100.00;98800.81;5077659;28;20028;-86
2022/08/21 02:50:51;;;;;;;21.17;5.78;;;;;;;15.36;100.00;98806.34;5078110;28;20037;-85
2022/08/21 02:53:17;;;;;;;16.33;5.93;;;;;;;15.37;100.00;98797.38;5068032;28;20363;-85
2022/08/21 02:55:47;;;;;;;11.07;4.97;;;;;;;15.32;100.00;98804.38;5078960;28;20093;-85
2022/08/21 02:58:16;;;;;;;15.85;5.25;;;;;;;15.52;100.00;98804.00;5085502;28;20081;-85
2022/08/21 03:00:43;;;;;;;21.10;5.75;;;;;;;15.60;100.00;98805.50;5087270;28;20084;-85
2022/08/21 03:03:09;;;;;;;19.55;5.90;;;;;;;15.67;100.00;98801.69;5085776;28;20071;-84
2022/08/21 03:05:37;;;;;;;17.33;5.82;;;;;;;15.72;100.00;98798.31;5082616;28;20035;-84
2022/08/21 03:08:06;;;;;;;12.43;5.30;;;;;;;15.73;100.00;98794.66;5082520;28;20059;-85
2022/08/21 03:10:32;;;;;;;19.60;6.18;;;;;;;15.68;100.00;98791.91;5078553;28;20032;-84
2022/08/21 03:12:57;;;;;;;12.32;5.25;;;;;;;15.75;100.00;98786.47;5086258;28;20031;-86
2022/08/21 03:15:24;;;;;;;20.55;5.70;;;;;;;15.82;100.00;98776.56;5080540;28;20028;-85
2022/08/21 03:17:50;;;;;;;11.65;5.63;;;;;;;15.90;100.00;98783.34;5086762;28;20489;-85
2022/08/21 03:20:18;;;;;;;17.00;5.82;;;;;;;15.50;100.00;98772.50;5069299;28;20016;-85
2022/08/21 03:22:44;;;;;;;15.98;5.22;;;;;;;15.64;100.00;98785.47;5060052;28;20543;-84
2022/08/21 03:25:10;;;;;;;14.68;5.38;;;;;;;15.69;100.00;98777.63;5082961;28;20059;-84
2022/08/21 03:27:37;;;;;;;14.82;5.57;;;;;;;15.64;100.00;98757.19;5082893;28;20024;-85
2022/08/21 03:30:05;;;;;;;13.43;4.93;;;;;;;15.71;100.00;98770.25;5065430;28;20153;-85
2022/08/21 03:32:31;;;;;;;14.75;5.70;;;;;;;15.43;100.00;98779.75;5085251;28;20028;-85
2022/08/21 03:34:57;;;;;;;14.73;5.38;;;;;;;15.73;100.00;98775.31;5066746;28;20033;-86
2022/08/21 03:37:24;;;;;;;10.45;4.72;;;;;;;15.90;100.00;98772.75;5064416;28;20094;-88
2022/08/21 03:39:50;;;;;;;10.75;4.95;;;;;;;15.81;100.00;98774.94;5062678;28;20037;-85
2022/08/21 03:42:15;;;;;;;17.73;5.07;;;;;;;15.70;100.00;98780.06;5078615;28;20029;-86
2022/08/21 03:44:41;;;;;;;21.70;5.90;;;;;;;15.74;100.00;98787.53;5079307;28;20035;-86
2022/08/21 03:47:10;;;;;;;16.02;5.32;;;;;;;15.86;100.00;98785.66;5067211;28;20060;-87
2022/08/21 03:49:36;;;;;;;14.32;5.60;;;;;;;15.88;100.00;98791.50;5084577;28;20084;-86
2022/08/21 03:52:05;;;;;;;16.60;5.32;;;;;;;16.04;100.00;98789.19;5084504;28;20498;-86
2022/08/21 03:54:31;;;;;;;17.88;5.60;;;;;;;15.98;100.00;98798.88;5081074;28;20366;-87
2022/08/21 03:56:57;;;;;;;20.38;6.63;;;;;;;15.55;100.00;98785.03;5060162;28;20057;-85
2022/08/21 03:59:24;;;;;;;16.02;6.93;;;;;;;15.54;100.00;98791.38;5059889;28;20055;-87
2022/08/21 04:01:55;;;;;;;10.30;5.03;;;;;;;15.69;100.00;98798.78;5076529;28;20028;-86
2022/08/21 04:04:26;;;;;;;18.80;5.68;;;;;;;15.41;100.00;98809.06;5059208;28;20038;-87
2022/08/21 04:06:52;;;;;;;15.68;5.93;;;;;;;15.74;100.00;98801.56;5060813;28;20024;-86
2022/08/21 04:09:18;;;;;;;19.75;5.80;;;;;;;15.80;100.00;98797.97;5060398;28;20040;-86
2022/08/21 04:11:45;;;;;;;18.05;5.97;;;;;;;15.56;100.00;98803.31;5075929;28;20398;-88
2022/08/21 04:14:11;;;;;;;16.17;6.07;;;;;;;15.48;100.00;98808.16;5077187;28;20436;-86
2022/08/21 04:16:37;;;;;;;19.60;6.28;;;;;;;15.57;100.00;98812.06;5059656;28;20401;-88
2022/08/21 04:19:04;;;;;;;19.88;7.18;;;;;;;15.73;100.00;98818.47;5076061;28;20029;-87
2022/08/21 04:21:30;;;;;;;20.13;7.38;;;;;;;15.76;100.00;98823.31;5076451;28;20389;-86
2022/08/21 04:23:56;;;;;;;17.35;6.40;;;;;;;15.86;100.00;98820.06;5077106;28;20036;-86
2022/08/21 04:26:22;;;;;;;18.58;6.10;;;;;;;15.97;100.00;98831.69;5078562;28;20081;-87
2022/08/21 04:28:48;;;;;;;19.20;7.45;;;;;;;15.92;100.00;98813.06;5060817;28;20055;-90
2022/08/21 04:31:14;;;;;;;20.27;7.35;;;;;;;15.71;100.00;98816.06;5095694;28;20028;-88
2022/08/21 04:33:42;;;;;;;19.63;6.25;;;;;;;15.68;100.00;98821.81;5094535;28;20436;-87
2022/08/21 04:36:08;;;;;;;20.40;6.45;;;;;;;15.64;100.00;98817.22;5094402;28;20028;-87
2022/08/21 04:38:34;;;;;;;15.65;7.22;;;;;;;15.72;100.00;98819.50;5078641;28;20032;-88
2022/08/21 04:40:59;;;;;;;15.25;6.95;;;;;;;15.41;100.00;98813.59;5071899;28;20033;-89
2022/08/21 04:43:25;;;;;;;14.63;6.60;;;;;;;15.38;100.00;98803.47;5072435;28;20059;-85
2022/08/21 04:45:52;;;;;;;17.08;7.13;;;;;;;15.66;100.00;98813.31;5082655;28;20394;-88
2022/08/21 04:48:21;;;;;;;12.95;8.00;;;;;;;15.43;100.00;98830.00;5081116;28;20057;-85
2022/08/21 04:50:56;;;;;;;23.30;8.63;;;;;;;15.57;100.00;98839.31;5097449;28;20056;-86
2022/08/21 04:54:04;;;;;;;14.13;7.85;;;;;;;15.53;100.00;98830.25;5094125;28;20078;-86
2022/08/21 04:56:39;;;;;;;19.20;7.93;;;;;;;15.68;100.00;98844.81;5057251;28;20036;-86
2022/08/21 04:59:12;;;;;;;20.52;8.70;;;;;;;15.77;100.00;98842.63;5080876;28;20087;-86
2022/08/21 05:01:40;;;;;;;20.85;8.68;;;;;;;15.83;100.00;98853.06;5059292;28;20029;-87
2022/08/21 05:04:10;;;;;;;21.67;8.15;;;;;;;15.88;100.00;98833.84;5057880;28;20025;-86
2022/08/21 05:06:38;;;;;;;16.65;8.35;;;;;;;15.99;100.00;98856.06;5063621;28;20075;-87
2022/08/21 05:09:05;;;;;;;20.80;8.60;;;;;;;16.05;100.00;98865.72;5069134;28;20028;-88
2022/08/21 05:11:32;;;;;;;23.40;9.50;;;;;;;15.95;100.00;98860.22;5072351;28;20041;-87
2022/08/21 05:13:58;;;;;;;23.40;10.20;;;;;;;16.02;100.00;98863.53;5074667;28;20453;-86
2022/08/21 05:16:24;;;;;;;20.73;8.93;;;;;;;16.02;100.00;98855.59;5073871;28;20039;-87
2022/08/21 05:18:51;;;;;;;17.42;8.52;;;;;;;16.10;100.00;98859.72;5091725;28;20020;-86
2022/08/21 05:21:16;;;;;;;17.75;9.13;;;;;;;15.95;100.00;98854.94;5081344;28;20034;-88
2022/08/21 05:23:42;;;;;;;17.27;9.18;;;;;;;15.98;100.00;98863.19;5082443;28;20032;-88
2022/08/21 05:26:08;;;;;;;20.65;9.45;;;;;;;15.96;100.00;98861.84;5081360;28;20054;-88
2022/08/21 05:28:34;;;;;;;17.17;10.02;;;;;;;15.91;100.00;98859.06;5069670;28;20028;-89
2022/08/21 05:31:00;;;;;;;22.88;10.18;;;;;;;16.07;100.00;98874.22;5084761;28;20036;-90
2022/08/21 05:33:26;;;;;;;20.05;10.88;;;;;;;16.03;100.00;98878.38;5066527;28;20044;-88
2022/08/21 05:35:55;;;;;;;24.70;12.23;;;;;;;15.99;100.00;98869.31;5068302;28;20490;-87
2022/08/21 05:38:21;;;;;;;19.58;11.93;;;;;;;16.23;100.00;98880.63;5079413;28;20047;-88
2022/08/21 05:40:47;;;;;;;18.80;11.63;;;;;;;16.40;100.00;98890.47;5083301;28;20024;-87
2022/08/21 05:43:13;;;;;;;22.63;12.88;;;;;;;16.45;100.00;98885.28;5067136;28;20035;-89
2022/08/21 05:45:39;;;;;;;19.40;12.80;;;;;;;16.54;100.00;98891.78;5077489;28;20095;-85
2022/08/21 05:48:14;;;;;;;21.50;14.05;;;;;;;16.48;100.00;98890.09;5060459;28;20055;-87
2022/08/21 05:50:41;;;;;;;20.33;12.90;;;;;;;16.53;100.00;98886.75;5073714;28;20565;-87
2022/08/21 05:53:08;;;;;;;20.02;12.05;;;;;;;16.63;100.00;98891.41;5074885;28;20032;-86
2022/08/21 05:55:35;;;;;;;21.48;12.98;;;;;;;16.63;100.00;98897.50;5073924;28;20094;-85
2022/08/21 05:58:00;;;;;;;17.55;11.30;;;;;;;16.77;100.00;98913.13;5089076;28;20066;-85
2022/08/21 06:00:26;;;;;;;17.90;10.48;;;;;;;16.32;100.00;98896.97;5094465;28;20445;-85
2022/08/21 06:02:52;;;;;;;16.92;10.35;;;;;;;16.36;100.00;98897.28;5070044;28;20032;-88
2022/08/21 06:05:18;;;;;;;18.65;8.55;;;;;;;16.57;100.00;98893.16;5080718;28;20032;-85
2022/08/21 06:07:44;;;;;;;17.48;9.45;;;;;;;16.75;100.00;98920.50;5086210;28;20049;-85
2022/08/21 06:10:10;;;;;;;12.90;8.30;;;;;;;16.89;100.00;98907.75;5063157;28;20572;-86
2022/08/21 06:12:36;;;;;;;12.55;8.05;;;;;;;16.97;100.00;98902.88;5081220;28;20393;-86
2022/08/21 06:15:01;;;;;;;19.40;7.30;;;;;;;16.93;100.00;98912.34;5062225;28;20036;-84
2022/08/21 06:17:27;;;;;;;16.58;7.57;;;;;;;17.06;100.00;98916.56;5076497;28;20383;-86
2022/08/21 06:19:53;;;;;;;11.90;6.65;;;;;;;17.24;100.00;98912.88;5085947;28;20023;-85
2022/08/21 06:22:19;;;;;;;14.38;6.80;;;;;;;17.26;100.00;98916.06;5080881;28;20824;-86
2022/08/21 06:24:45;;;;;;;17.88;7.20;;;;;;;17.35;100.00;98911.16;5079566;28;20034;-88
2022/08/21 06:27:11;;;;;;;17.15;6.72;;;;;;;17.48;100.00;98915.34;5077726;28;20103;-86
2022/08/21 06:29:38;;;;;;;12.68;6.43;;;;;;;17.51;100.00;98916.72;5069344;28;20024;-87
2022/08/21 06:32:07;;;;;;;12.20;6.47;;;;;;;17.39;100.00;98911.50;5090122;28;20038;-86
2022/08/21 06:34:36;;;;;;;13.40;6.20;;;;;;;17.31;100.00;98923.31;5083881;28;20494;-87
2022/08/21 06:37:02;;;;;;;17.63;6.35;;;;;;;17.19;100.00;98923.41;5087870;28;20469;-87
2022/08/21 06:39:27;;;;;;;16.60;6.40;;;;;;;17.05;100.00;98927.41;5081284;28;20032;-88
2022/08/21 06:41:54;;;;;;;13.18;6.40;;;;;;;17.01;100.00;98920.97;5086116;28;20103;-88
2022/08/21 06:44:20;;;;;;;13.25;6.13;;;;;;;17.35;100.00;98919.13;5079526;28;20039;-85
2022/08/21 06:46:45;;;;;;;13.02;6.70;;;;;;;17.50;100.00;98912.44;5087053;28;20020;-87
2022/08/21 06:49:12;;;;;;;13.65;6.32;;;;;;;17.45;100.00;98913.16;5085043;28;20036;-86
2022/08/21 06:51:38;;;;;;;15.32;6.03;;;;;;;17.49;100.00;98919.63;5089695;28;20024;-87
2022/08/21 06:54:05;;;;;;;15.02;6.25;;;;;;;17.67;100.00;98915.88;5066648;28;20063;-87
2022/08/21 06:56:31;;;;;;;12.68;6.43;;;;;;;17.60;100.00;98914.44;5085595;28;20107;-85
2022/08/21 06:58:56;;;;;;;10.27;5.60;;;;;;;17.70;100.00;98919.91;5066111;28;20103;-86
2022/08/21 07:01:25;;;;;;;16.55;5.68;;;;;;;17.70;100.00;98925.22;5082899;28;20021;-87
2022/08/21 07:03:50;;;;;;;12.10;5.60;;;;;;;17.77;100.00;98920.53;5084294;28;20102;-85
2022/08/21 07:06:16;;;;;;;20.65;6.85;;;;;;;17.76;100.00;98920.75;5085473;28;20530;-86
2022/08/21 07:08:43;;;;;;;11.75;5.30;;;;;;;17.99;100.00;98917.09;5082300;28;20436;-86
2022/08/21 07:11:19;;;;;;;11.38;6.13;;;;;;;18.28;100.00;98914.28;5079313;28;20516;-86
2022/08/21 07:13:45;;;;;;;11.15;6.32;;;;;;;18.54;100.00;98914.56;5080877;28;20024;-87
2022/08/21 07:16:12;;;;;;;16.80;6.53;;;;;;;18.51;100.00;98931.00;5064468;28;20043;-87
2022/08/21 07:19:06;;;;;;;12.85;6.05;;;;;;;18.69;100.00;98937.81;5066866;28;20028;-89
2022/08/21 07:21:58;;;;;;;15.32;6.32;;;;;;;18.38;100.00;98943.63;5078227;28;20104;-89
2022/08/21 07:24:28;;;;;;;16.10;6.57;;;;;;;18.01;100.00;98944.19;5082296;28;20027;-89
2022/08/21 07:26:54;;;;;;;18.20;6.78;;;;;;;18.38;100.00;98934.88;5064455;28;20040;-88
2022/08/21 07:29:22;;;;;;;15.40;6.65;;;;;;;18.34;100.00;98939.88;5065028;28;20032;-86
2022/08/21 07:31:48;;;;;;;14.95;6.35;;;;;;;18.16;100.00;98933.00;5091753;28;20036;-87
2022/08/21 07:34:14;;;;;;;10.70;6.15;;;;;;;18.50;100.00;98932.06;5092304;28;20474;-87
2022/08/21 07:36:40;;;;;;;15.38;5.80;;;;;;;18.41;100.00;98939.69;5081509;28;20062;-84
2022/08/21 07:39:05;;;;;;;10.82;5.63;;;;;;;18.76;100.00;98945.63;5078423;28;20722;-78
2022/08/21 07:41:31;;;;;;;14.82;5.38;;;;;;;18.78;100.00;98943.50;5082984;28;20359;-84
2022/08/21 07:43:58;;;;;;;12.88;6.05;;;;;;;18.91;100.00;98953.75;5081660;28;20025;-84
2022/08/21 07:46:24;;;;;;;18.13;5.40;;;;;;;18.95;100.00;98952.19;5066887;28;20123;-83
2022/08/21 07:48:50;;;;;;;17.75;5.22;;;;;;;18.60;100.00;98952.63;5080991;28;20043;-81
2022/08/21 07:51:25;;;;;;;12.95;5.75;;;;;;;18.44;100.00;98948.97;5077424;28;20045;-84
2022/08/21 07:53:53;;;;;;;13.48;5.78;;;;;;;18.57;100.00;98948.59;5084361;28;20024;-85
2022/08/21 07:56:19;;;;;;;11.23;4.90;;;;;;;18.64;100.00;98949.22;5080023;28;20027;-84
2022/08/21 07:58:45;;;;;;;11.88;4.80;;;;;;;18.26;100.00;98937.63;5080892;28;20536;-83
2022/08/21 08:01:11;;;;;;;16.75;6.13;;;;;;;18.27;100.00;98955.16;5085568;28;20043;-85
2022/08/21 08:03:38;;;;;;;12.20;5.18;;;;;;;18.34;100.00;98949.66;5078143;28;20474;-85
2022/08/21 08:06:06;;;;;;;11.70;5.10;;;;;;;18.82;100.00;98963.22;5069499;28;20439;-84
2022/08/21 08:10:23;;;;;;;11.27;4.43;;;;;;;18.09;100.00;98956.28;5094612;27;20868;-84
2022/08/21 08:12:54;;;;;;;10.85;5.00;;;;;;;18.26;100.00;98956.22;5076149;28;20032;-85
2022/08/21 08:15:23;;;;;;;12.05;5.60;;;;;;;18.20;100.00;98954.56;5101004;28;20398;-86
2022/08/21 08:17:49;;;;;;;10.85;5.57;;;;;;;17.93;100.00;98960.56;5094806;28;20024;-88
2022/08/21 08:20:19;;;;;;;15.43;5.65;;;;;;;18.08;100.00;98952.03;5081532;28;20030;-87
2022/08/21 08:22:45;;;;;;;12.07;5.18;;;;;;;17.91;100.00;98947.53;5102630;28;20024;-87
2022/08/21 08:25:13;;;;;;;12.48;5.63;;;;;;;17.97;100.00;98946.53;5095088;28;20069;-85
2022/08/21 08:27:39;;;;;;;10.85;5.03;;;;;;;17.56;100.00;98952.09;5074313;28;20024;-85
2022/08/21 08:30:08;;;;;;;10.07;5.13;;;;;;;17.74;100.00;98954.72;5081154;28;20081;-85
2022/08/21 08:32:34;;;;;;;11.57;4.30;;;;;;;17.61;100.00;98951.38;5064584;28;20131;-85
2022/08/21 08:35:00;;;;;;;10.05;4.40;;;;;;;17.54;100.00;98958.69;5058522;28;20036;-86
2022/08/21 08:37:25;;;;;;;14.57;4.82;;;;;;;17.63;100.00;98946.63;5061447;28;20028;-85
2022/08/21 08:39:51;;;;;;;13.23;4.53;;;;;;;18.20;100.00;98946.59;5073724;28;20016;-84
2022/08/21 08:42:28;;;;;;;6.10;3.42;;;;;;;18.05;100.00;98953.31;5069997;28;20044;-81
2022/08/21 08:44:59;;;;;;;12.52;4.22;;;;;;;17.85;100.00;98954.63;5065958;28;20036;-86
2022/08/21 08:47:27;;;;;;;10.40;4.65;;;;;;;17.50;100.00;98973.47;5065569;28;20237;-86
2022/08/21 08:50:02;;;;;;;8.05;3.65;;;;;;;17.58;100.00;98974.94;5050451;28;20475;-87
2022/08/21 08:52:40;;;;;;;5.95;3.70;;;;;;;17.71;100.00;98969.28;5067038;28;20032;-86
2022/08/21 08:55:19;;;;;;;13.93;3.72;;;;;;;18.01;100.00;98956.69;5064056;28;20086;-86
2022/08/21 08:57:47;;;;;;;6.60;3.63;;;;;;;17.95;100.00;98950.50;5074047;28;20382;-86
2022/08/21 09:00:16;;;;;;;9.40;3.50;;;;;;;18.29;100.00;98958.41;5069969;28;20024;-85
2022/08/21 09:02:44;;;;;;;6.15;3.40;;;;;;;17.68;100.00;98959.97;5067848;28;20032;-83
2022/08/21 09:05:21;;;;;;;13.05;3.65;;;;;;;17.79;100.00;98960.13;5066362;28;20028;-86
2022/08/21 09:07:50;;;;;;;11.52;3.63;;;;;;;17.91;100.00;98960.00;5065317;28;20064;-83
2022/08/21 09:10:30;;;;;;;12.05;4.40;;;;;;;18.13;100.00;98968.84;5067279;28;20048;-86
2022/08/21 09:13:22;;;;;;;5.32;2.90;;;;;;;17.54;100.00;98971.94;5054680;28;20036;-84
2022/08/21 09:16:09;;;;;;;6.72;2.72;;;;;;;17.64;100.00;98973.94;5049859;28;20410;-77
2022/08/21 09:18:41;;;;;;;13.18;3.63;;;;;;;17.74;100.00;98973.31;5055116;28;20504;-83
2022/08/21 09:21:09;;;;;;;8.07;3.63;;;;;;;17.83;100.00;98977.16;5087797;28;20063;-82
2022/08/21 09:23:56;;;;;;;7.50;3.40;;;;;;;17.60;100.00;98978.13;5084513;28;20035;-84
2022/08/21 09:26:30;;;;;;;10.52;3.65;;;;;;;17.89;100.00;98978.84;5066709;28;20486;-84
2022/08/21 09:28:59;;;;;;;11.18;3.13;;;;;;;18.47;100.00;98981.19;5117288;27;20090;-83
2022/08/21 09:31:34;;;;;;;6.50;2.88;;;;;;;18.42;100.00;98973.97;5063155;28;20036;-84
2022/08/21 09:34:02;;;;;;;8.80;3.25;;;;;;;18.62;100.00;98977.91;5060541;28;20116;-84
2022/08/21 09:36:43;;;;;;;7.00;3.47;;;;;;;18.72;100.00;98971.09;5083440;28;20437;-83
2022/08/21 09:39:11;;;;;;;7.60;2.90;;;;;;;18.54;100.00;98976.47;5081885;28;20153;-83
2022/08/21 09:41:38;;;;;;;9.45;3.13;;;;;;;18.51;100.00;98984.16;5082975;28;20032;-84
2022/08/21 09:44:08;;;;;;;7.57;3.08;;;;;;;18.49;100.00;98988.94;5077415;28;20043;-84
2022/08/21 09:46:51;;;;;;;9.98;3.58;;;;;;;18.67;100.00;98979.81;5074989;28;20036;-83
2022/08/21 09:49:34;;;;;;;12.10;3.63;;;;;;;19.01;100.00;98978.84;5082040;28;20107;-85
2022/08/21 09:52:01;;;;;;;7.65;3.05;;;;;;;19.30;100.00;98982.03;5064314;28;20059;-84
2022/08/21 09:54:34;;;;;;;10.55;3.35;;;;;;;18.99;100.00;98976.47;5067440;28;20502;-83
2022/08/21 10:00:19;;;;;;;13.68;3.38;;;;;;;18.88;100.00;98977.38;5086058;28;20025;-83
2022/08/21 10:02:45;;;;;;;8.90;3.88;;;;;;;18.51;100.00;98981.50;5085337;28;20028;-84
2022/08/21 10:05:26;;;;;;;10.23;3.38;;;;;;;18.49;100.00;98979.09;5062773;28;20059;-84
2022/08/21 10:07:52;;;;;;;9.45;3.65;;;;;;;18.63;100.00;98979.50;5081835;28;20024;-84
2022/08/21 10:10:26;;;;;;;11.38;3.63;;;;;;;18.66;100.00;98979.00;5057963;28;20044;-83
2022/08/21 10:12:58;;;;;;;4.63;3.00;;;;;;;18.64;100.00;98980.31;5063654;28;20047;-84
2022/08/21 10:15:39;;;;;;;6.80;2.83;;;;;;;18.69;100.00;98985.69;5078580;28;20367;-84
2022/08/21 10:18:14;;;;;;;7.00;3.10;;;;;;;18.49;100.00;98971.13;5075777;28;20032;-84
2022/08/21 10:20:44;;;;;;;9.13;5.13;;;;;;;18.45;100.00;98979.81;5068690;28;20028;-84
2022/08/21 10:23:36;;;;;;;10.57;3.33;;;;;;;18.12;100.00;98975.19;5075721;28;20111;-84
2022/08/21 10:26:27;;;;;;;7.65;3.50;;;;;;;18.59;100.00;98989.03;5058619;28;20032;-84
2022/08/21 10:29:02;;;;;;;9.70;3.40;;;;;;;18.83;100.00;98988.75;5050312;28;20123;-84
2022/08/21 10:31:36;;;;;;;9.38;3.38;;;;;;;18.91;100.00;98976.88;5080169;28;20028;-85
2022/08/21 10:34:10;;;;;;;10.02;3.30;;;;;;;18.86;100.00;98972.28;5084174;28;20024;-83
2022/08/21 10:36:43;;;;;;;11.43;3.95;;;;;;;18.98;100.00;98974.81;5081577;28;20040;-85
2022/08/21 10:39:18;;;;;;;;;;;;;;;19.17;100.00;98971.84;5086916;28;20023;-84
2022/08/21 10:42:05;;;;;;;13.52;3.58;;;;;;;19.21;100.00;98979.03;5081939;28;19965;-86
2022/08/21 10:45:12;;;;;;;7.53;3.30;;;;;;;19.16;100.00;98984.31;5077324;28;20100;-83
2022/08/21 10:47:53;;;;;;;11.07;3.78;;;;;;;19.04;100.00;98973.03;5079423;28;20044;-84
2022/08/21 10:50:59;;;;;;;9.80;3.50;;;;;;;18.89;100.00;98978.97;5085437;28;20040;-85
2022/08/21 10:53:52;;;;;;;6.78;3.05;;;;;;;18.99;100.00;98979.13;5025211;28;20372;-84
2022/08/21 10:56:22;;;;;;;10.23;3.15;;;;;;;18.66;100.00;98979.00;5082465;28;20035;-84
2022/08/21 10:59:22;;;;;;;6.82;3.47;;;;;;;18.72;100.00;98987.84;5080602;28;20056;-85
2022/08/21 11:01:56;;;;;;;7.18;3.20;;;;;;;18.67;100.00;98988.63;5055942;28;20482;-83
2022/08/21 11:04:40;;;;;;;13.43;3.30;;;;;;;19.03;100.00;98982.88;5077532;28;20032;-84
2022/08/21 11:07:16;;;;;;;8.00;3.15;;;;;;;19.47;100.00;98986.44;5088178;28;20081;-85
2022/08/21 11:09:45;;;;;;;5.97;3.00;;;;;;;19.51;100.00;98977.69;5077250;28;20041;-85
2022/08/21 11:12:34;;;;;;;6.60;3.17;;;;;;;20.32;100.00;98980.28;5080350;28;20094;-85
2022/08/21 11:15:00;;;;;;;10.98;4.15;;;;;;;20.37;100.00;98982.97;5083133;28;20119;-86
2022/08/21 11:17:52;;;;;;;9.18;3.65;;;;;;;20.86;100.00;98980.22;5065267;28;20118;-84
2022/08/21 11:20:36;;;;;;;9.10;3.42;;;;;;;21.36;100.00;98988.53;5083325;28;20071;-84
2022/08/21 11:23:13;;;;;;;9.20;3.70;;;;;;;21.29;100.00;98991.47;5082416;28;20509;-85
2022/08/21 11:25:48;;;;;;;10.05;3.78;;;;;;;21.06;100.00;98982.91;5077720;28;20085;-85
2022/08/21 11:28:26;;;;;;;12.15;4.35;;;;;;;21.63;100.00;98988.25;5080304;28;20499;-86
2022/08/21 11:31:00;;;;;;;8.15;4.28;;;;;;;21.85;100.00;99003.19;5060442;28;20020;-85
2022/08/21 11:33:32;;;;;;;8.77;4.40;;;;;;;21.57;100.00;98996.53;5077138;28;20030;-85
2022/08/21 11:36:22;;;;;;;8.63;5.45;;;;;;;21.01;100.00;99001.59;5058870;28;20028;-85